sensor_id;sensor_type;location;lat;lon;timestamp;pressure;altitude;pressure_sealevel;temperature;humidity
74346;BME280;62776;50.518;6.732;2022-12-07T00:01:18;96597.63;;;3.41;100.00
74346;BME280;62776;50.518;6.732;2022-12-07T00:04:06;96594.19;;;3.41;100.00
74346;BME280;62776;50.518;6.732;2022-12-07T00:06:53;96594.19;;;3.41;100.00
74346;BME280;62776;50.518;6.732;2022-12-07T00:09:39;96589.06;;;3.41;100.00
74346;BME280;62776;50.518;6.732;2022-12-07T00:12:27;96594.16;;;3.39;100.00
74346;BME280;62776;50.518;6.732;2022-12-07T00:15:13;96596.69;;;3.38;100.00
74346;BME280;62776;50.518;6.732;2022-12-07T00:17:59;96588.16;;;3.39;100.00
74346;BME280;62776;50.518;6.732;2022-12-07T00:20:45;96589.88;;;3.38;100.00
74346;BME280;62776;50.518;6.732;2022-12-07T00:23:31;96583.84;;;3.38;100.00
74346;BME280;62776;50.518;6.732;2022-12-07T00:29:16;96587.16;;;3.31;100.00
74346;BME280;62776;50.518;6.732;2022-12-07T00:32:03;96587.28;;;3.37;100.00
74346;BME280;62776;50.518;6.732;2022-12-07T00:34:49;96574.38;;;3.32;100.00
74346;BME280;62776;50.518;6.732;2022-12-07T00:37:35;96572.56;;;3.28;100.00
74346;BME280;62776;50.518;6.732;2022-12-07T00:40:21;96575.06;;;3.25;100.00
74346;BME280;62776;50.518;6.732;2022-12-07T00:43:07;96579.31;;;3.23;100.00
74346;BME280;62776;50.518;6.732;2022-12-07T00:45:54;96571.69;;;3.26;100.00
74346;BME280;62776;50.518;6.732;2022-12-07T00:48:40;96569.13;;;3.26;100.00
74346;BME280;62776;50.518;6.732;2022-12-07T00:51:26;96573.41;;;3.27;100.00
74346;BME280;62776;50.518;6.732;2022-12-07T00:54:12;96565.69;;;3.27;100.00
74346;BME280;62776;50.518;6.732;2022-12-07T00:56:59;96561.47;;;3.31;100.00
74346;BME280;62776;50.518;6.732;2022-12-07T00:59:45;96558.09;;;3.32;100.00
74346;BME280;62776;50.518;6.732;2022-12-07T01:02:31;96552.09;;;3.33;100.00
74346;BME280;62776;50.518;6.732;2022-12-07T01:05:17;96549.44;;;3.27;100.00
74346;BME280;62776;50.518;6.732;2022-12-07T01:08:03;96554.59;;;3.30;100.00
74346;BME280;62776;50.518;6.732;2022-12-07T01:10:58;96547.75;;;3.30;100.00
74346;BME280;62776;50.518;6.732;2022-12-07T01:13:44;96555.47;;;3.30;100.00
74346;BME280;62776;50.518;6.732;2022-12-07T01:16:32;96542.63;;;3.29;100.00
74346;BME280;62776;50.518;6.732;2022-12-07T01:19:18;96554.56;;;3.27;100.00
74346;BME280;62776;50.518;6.732;2022-12-07T01:22:04;96552.88;;;3.29;100.00
74346;BME280;62776;50.518;6.732;2022-12-07T01:24:50;96554.59;;;3.30;100.00
74346;BME280;62776;50.518;6.732;2022-12-07T01:27:36;96551.19;;;3.31;100.00
74346;BME280;62776;50.518;6.732;2022-12-07T01:30:23;96550.31;;;3.29;100.00
74346;BME280;62776;50.518;6.732;2022-12-07T01:33:09;96549.47;;;3.30;100.00
74346;BME280;62776;50.518;6.732;2022-12-07T01:36:05;96547.75;;;3.29;100.00
74346;BME280;62776;50.518;6.732;2022-12-07T01:38:55;96545.09;;;3.24;100.00
74346;BME280;62776;50.518;6.732;2022-12-07T01:41:42;96550.28;;;3.27;100.00
74346;BME280;62776;50.518;6.732;2022-12-07T01:44:30;96551.09;;;3.25;100.00
74346;BME280;62776;50.518;6.732;2022-12-07T01:47:17;96549.44;;;3.27;100.00
74346;BME280;62776;50.518;6.732;2022-12-07T01:50:04;96552.91;;;3.30;100.00
74346;BME280;62776;50.518;6.732;2022-12-07T01:52:51;96558.84;;;3.26;100.00
74346;BME280;62776;50.518;6.732;2022-12-07T01:55:42;96555.47;;;3.29;100.00
74346;BME280;62776;50.518;6.732;2022-12-07T01:58:29;96546.00;;;3.28;100.00
74346;BME280;62776;50.518;6.732;2022-12-07T02:01:15;96551.19;;;3.31;100.00
74346;BME280;62776;50.518;6.732;2022-12-07T02:04:02;96546.06;;;3.31;100.00
74346;BME280;62776;50.518;6.732;2022-12-07T02:06:49;96546.91;;;3.30;100.00
74346;BME280;62776;50.518;6.732;2022-12-07T02:09:35;96546.06;;;3.31;100.00
74346;BME280;62776;50.518;6.732;2022-12-07T02:12:23;96543.44;;;3.28;100.00
74346;BME280;62776;50.518;6.732;2022-12-07T02:15:10;96542.63;;;3.29;100.00
74346;BME280;62776;50.518;6.732;2022-12-07T02:21:03;96540.69;;;3.16;100.00
74346;BME280;62776;50.518;6.732;2022-12-07T02:30:21;96537.44;;;3.26;100.00
74346;BME280;62776;50.518;6.732;2022-12-07T02:33:16;96537.34;;;3.21;100.00
74346;BME280;62776;50.518;6.732;2022-12-07T02:36:11;96534.88;;;3.27;100.00
74346;BME280;62776;50.518;6.732;2022-12-07T02:39:18;96532.34;;;3.29;100.00
74346;BME280;62776;50.518;6.732;2022-12-07T02:42:17;96531.47;;;3.28;100.00
74346;BME280;62776;50.518;6.732;2022-12-07T02:45:06;96531.53;;;3.33;100.00
74346;BME280;62776;50.518;6.732;2022-12-07T02:47:56;96528.16;;;3.34;100.00
74346;BME280;62776;50.518;6.732;2022-12-07T02:50:48;96529.06;;;3.39;100.00
74346;BME280;62776;50.518;6.732;2022-12-07T02:53:39;96529.91;;;3.36;100.00
74346;BME280;62776;50.518;6.732;2022-12-07T03:03:07;96526.22;;;3.22;100.00
74346;BME280;62776;50.518;6.732;2022-12-07T03:06:14;96528.16;;;3.35;100.00
74346;BME280;62776;50.518;6.732;2022-12-07T03:09:18;96528.16;;;3.34;100.00
74346;BME280;62776;50.518;6.732;2022-12-07T03:12:11;96526.56;;;3.40;100.00
74346;BME280;62776;50.518;6.732;2022-12-07T03:15:09;96521.38;;;3.39;100.00
74346;BME280;62776;50.518;6.732;2022-12-07T03:17:58;96523.16;;;3.43;100.00
74346;BME280;62776;50.518;6.732;2022-12-07T03:20:46;96523.19;;;3.44;100.00
74346;BME280;62776;50.518;6.732;2022-12-07T03:23:35;96519.72;;;3.42;100.00
74346;BME280;62776;50.518;6.732;2022-12-07T03:26:28;96524.88;;;3.44;100.00
74346;BME280;62776;50.518;6.732;2022-12-07T03:29:27;96520.53;;;3.40;100.00
74346;BME280;62776;50.518;6.732;2022-12-07T03:32:25;96518.84;;;3.40;100.00
74346;BME280;62776;50.518;6.732;2022-12-07T03:35:19;96518.03;;;3.43;100.00
74346;BME280;62776;50.518;6.732;2022-12-07T03:38:16;96514.66;;;3.45;100.00
74346;BME280;62776;50.518;6.732;2022-12-07T03:41:11;96517.16;;;3.44;100.00
74346;BME280;62776;50.518;6.732;2022-12-07T03:44:00;96516.44;;;3.51;100.00
74346;BME280;62776;50.518;6.732;2022-12-07T03:46:58;96520.53;;;3.40;100.00
74346;BME280;62776;50.518;6.732;2022-12-07T03:49:50;96518.91;;;3.45;100.00
74346;BME280;62776;50.518;6.732;2022-12-07T03:52:59;96522.19;;;3.36;100.00
74346;BME280;62776;50.518;6.732;2022-12-07T03:55:49;96520.66;;;3.46;100.00
74346;BME280;62776;50.518;6.732;2022-12-07T03:58:37;96518.91;;;3.45;100.00
74346;BME280;62776;50.518;6.732;2022-12-07T04:01:24;96519.78;;;3.45;100.00
74346;BME280;62776;50.518;6.732;2022-12-07T04:04:11;96512.13;;;3.50;100.00
74346;BME280;62776;50.518;6.732;2022-12-07T04:06:57;96512.13;;;3.50;100.00
74346;BME280;62776;50.518;6.732;2022-12-07T04:09:43;96520.72;;;3.50;100.00
74346;BME280;62776;50.518;6.732;2022-12-07T04:12:29;96513.06;;;3.53;100.00
74346;BME280;62776;50.518;6.732;2022-12-07T04:15:15;96521.59;;;3.51;100.00
74346;BME280;62776;50.518;6.732;2022-12-07T04:18:01;96523.22;;;3.47;100.00
74346;BME280;62776;50.518;6.732;2022-12-07T04:20:47;96521.47;;;3.45;100.00
74346;BME280;62776;50.518;6.732;2022-12-07T04:23:34;96518.91;;;3.45;100.00
74346;BME280;62776;50.518;6.732;2022-12-07T04:26:20;96512.13;;;3.48;100.00
74346;BME280;62776;50.518;6.732;2022-12-07T04:29:06;96515.47;;;3.43;100.00
74346;BME280;62776;50.518;6.732;2022-12-07T04:31:52;96516.34;;;3.45;100.00
74346;BME280;62776;50.518;6.732;2022-12-07T04:34:39;96515.47;;;3.43;100.00
74346;BME280;62776;50.518;6.732;2022-12-07T04:37:25;96517.06;;;3.38;100.00
74346;BME280;62776;50.518;6.732;2022-12-07T04:40:11;96511.84;;;3.32;100.00
74346;BME280;62776;50.518;6.732;2022-12-07T04:43:00;96511.84;;;3.32;100.00
74346;BME280;62776;50.518;6.732;2022-12-07T04:45:47;96520.38;;;3.29;100.00
74346;BME280;62776;50.518;6.732;2022-12-07T04:48:33;96509.22;;;3.29;100.00
74346;BME280;62776;50.518;6.732;2022-12-07T04:51:22;96510.03;;;3.26;100.00
74346;BME280;62776;50.518;6.732;2022-12-07T04:54:09;96509.19;;;3.27;100.00
74346;BME280;62776;50.518;6.732;2022-12-07T04:56:55;96515.19;;;3.26;100.00
74346;BME280;62776;50.518;6.732;2022-12-07T04:59:41;96511.69;;;3.23;100.00
74346;BME280;62776;50.518;6.732;2022-12-07T05:02:27;96516.00;;;3.25;100.00
74346;BME280;62776;50.518;6.732;2022-12-07T05:05:13;96510.03;;;3.26;100.00
74346;BME280;62776;50.518;6.732;2022-12-07T05:07:59;96510.06;;;3.28;100.00
74346;BME280;62776;50.518;6.732;2022-12-07T05:10:45;96510.81;;;3.22;100.00
74346;BME280;62776;50.518;6.732;2022-12-07T05:13:31;96514.25;;;3.21;100.00
74346;BME280;62776;50.518;6.732;2022-12-07T05:16:17;96521.91;;;3.20;100.00
74346;BME280;62776;50.518;6.732;2022-12-07T05:19:04;96516.75;;;3.20;100.00
74346;BME280;62776;50.518;6.732;2022-12-07T05:21:50;96520.22;;;3.22;100.00
74346;BME280;62776;50.518;6.732;2022-12-07T05:24:36;96521.97;;;3.23;100.00
74346;BME280;62776;50.518;6.732;2022-12-07T05:27:22;96518.56;;;3.24;100.00
74346;BME280;62776;50.518;6.732;2022-12-07T05:30:09;96518.56;;;3.24;100.00
74346;BME280;62776;50.518;6.732;2022-12-07T05:32:55;96517.69;;;3.23;100.00
74346;BME280;62776;50.518;6.732;2022-12-07T05:35:42;96514.25;;;3.24;100.00
74346;BME280;62776;50.518;6.732;2022-12-07T05:38:28;96518.56;;;3.24;100.00
74346;BME280;62776;50.518;6.732;2022-12-07T05:41:17;96508.13;;;3.15;100.00
74346;BME280;62776;50.518;6.732;2022-12-07T05:44:23;96508.13;;;3.15;100.00
74346;BME280;62776;50.518;6.732;2022-12-07T05:47:13;96505.50;;;3.12;100.00
74346;BME280;62776;50.518;6.732;2022-12-07T05:49:59;96503.72;;;3.08;100.00
74346;BME280;62776;50.518;6.732;2022-12-07T05:52:45;96507.91;;;3.03;100.00
74346;BME280;62776;50.518;6.732;2022-12-07T05:55:31;96505.25;;;2.96;100.00
74346;BME280;62776;50.518;6.732;2022-12-07T05:58:17;96500.00;;;2.90;100.00
74346;BME280;62776;50.518;6.732;2022-12-07T06:01:22;96503.38;;;2.88;100.00
74346;BME280;62776;50.518;6.732;2022-12-07T06:04:08;96507.66;;;2.89;100.00
74346;BME280;62776;50.518;6.732;2022-12-07T06:06:54;96506.00;;;2.92;100.00
74346;BME280;62776;50.518;6.732;2022-12-07T06:09:40;96512.09;;;2.97;100.00
74346;BME280;62776;50.518;6.732;2022-12-07T06:12:27;96512.19;;;3.02;100.00
74346;BME280;62776;50.518;6.732;2022-12-07T06:15:32;96505.38;;;3.04;100.00
74346;BME280;62776;50.518;6.732;2022-12-07T06:18:18;96508.88;;;3.08;100.00
74346;BME280;62776;50.518;6.732;2022-12-07T06:21:04;96512.34;;;3.11;100.00
74346;BME280;62776;50.518;6.732;2022-12-07T06:23:50;96516.59;;;3.09;100.00
74346;BME280;62776;50.518;6.732;2022-12-07T06:26:36;96521.72;;;3.11;100.00
74346;BME280;62776;50.518;6.732;2022-12-07T06:29:22;96519.22;;;3.12;100.00
74346;BME280;62776;50.518;6.732;2022-12-07T06:32:08;96517.53;;;3.14;100.00
74346;BME280;62776;50.518;6.732;2022-12-07T06:34:54;96516.69;;;3.15;100.00
74346;BME280;62776;50.518;6.732;2022-12-07T06:37:40;96514.06;;;3.12;100.00
74346;BME280;62776;50.518;6.732;2022-12-07T06:40:26;96514.06;;;3.12;100.00
74346;BME280;62776;50.518;6.732;2022-12-07T06:43:13;96523.41;;;3.09;100.00
74346;BME280;62776;50.518;6.732;2022-12-07T06:45:59;96518.31;;;3.10;100.00
74346;BME280;62776;50.518;6.732;2022-12-07T06:48:45;96518.31;;;3.10;100.00
74346;BME280;62776;50.518;6.732;2022-12-07T06:51:32;96527.75;;;3.11;100.00
74346;BME280;62776;50.518;6.732;2022-12-07T06:54:19;96518.41;;;3.15;100.00
74346;BME280;62776;50.518;6.732;2022-12-07T06:57:05;96517.53;;;3.14;100.00
74346;BME280;62776;50.518;6.732;2022-12-07T06:59:51;96527.84;;;3.16;100.00
74346;BME280;62776;50.518;6.732;2022-12-07T07:02:37;96522.66;;;3.14;100.00
74346;BME280;62776;50.518;6.732;2022-12-07T07:05:23;96526.88;;;3.11;100.00
74346;BME280;62776;50.518;6.732;2022-12-07T07:08:09;96525.09;;;3.07;100.00
74346;BME280;62776;50.518;6.732;2022-12-07T07:10:55;96531.16;;;3.10;100.00
74346;BME280;62776;50.518;6.732;2022-12-07T07:13:41;96528.63;;;3.13;100.00
74346;BME280;62776;50.518;6.732;2022-12-07T07:16:28;96528.66;;;3.15;100.00
74346;BME280;62776;50.518;6.732;2022-12-07T07:19:15;96533.81;;;3.15;100.00
74346;BME280;62776;50.518;6.732;2022-12-07T07:22:02;96529.53;;;3.17;100.00
74346;BME280;62776;50.518;6.732;2022-12-07T07:24:48;96532.13;;;3.17;100.00
74346;BME280;62776;50.518;6.732;2022-12-07T07:27:34;96539.00;;;3.19;100.00
74346;BME280;62776;50.518;6.732;2022-12-07T07:30:20;96537.25;;;3.17;100.00
74346;BME280;62776;50.518;6.732;2022-12-07T07:33:07;96539.94;;;3.21;100.00
74346;BME280;62776;50.518;6.732;2022-12-07T07:35:53;96545.88;;;3.20;100.00
74346;BME280;62776;50.518;6.732;2022-12-07T07:38:39;96542.50;;;3.23;100.00
74346;BME280;62776;50.518;6.732;2022-12-07T07:41:25;96544.31;;;3.28;100.00
74346;BME280;62776;50.518;6.732;2022-12-07T07:44:12;96545.19;;;3.29;100.00
74346;BME280;62776;50.518;6.732;2022-12-07T07:46:58;96545.19;;;3.30;100.00
74346;BME280;62776;50.518;6.732;2022-12-07T07:49:44;96540.06;;;3.30;100.00
74346;BME280;62776;50.518;6.732;2022-12-07T07:52:31;96540.06;;;3.30;100.00
74346;BME280;62776;50.518;6.732;2022-12-07T07:55:17;96538.44;;;3.35;100.00
74346;BME280;62776;50.518;6.732;2022-12-07T07:58:03;96553.00;;;3.36;100.00
74346;BME280;62776;50.518;6.732;2022-12-07T08:00:49;96545.38;;;3.39;100.00
74346;BME280;62776;50.518;6.732;2022-12-07T08:03:36;96544.53;;;3.42;100.00
74346;BME280;62776;50.518;6.732;2022-12-07T08:06:22;96551.44;;;3.43;100.00
74346;BME280;62776;50.518;6.732;2022-12-07T08:09:08;96554.00;;;3.43;100.00
74346;BME280;62776;50.518;6.732;2022-12-07T08:11:55;96548.09;;;3.48;100.00
74346;BME280;62776;50.518;6.732;2022-12-07T08:14:41;96548.94;;;3.49;100.00
74346;BME280;62776;50.518;6.732;2022-12-07T08:17:27;96542.13;;;3.51;100.00
74346;BME280;62776;50.518;6.732;2022-12-07T08:20:13;96542.22;;;3.55;100.00
74346;BME280;62776;50.518;6.732;2022-12-07T08:22:59;96546.59;;;3.61;100.00
74346;BME280;62776;50.518;6.732;2022-12-07T08:25:46;96546.63;;;3.64;100.00
74346;BME280;62776;50.518;6.732;2022-12-07T08:28:32;96544.13;;;3.67;100.00
74346;BME280;62776;50.518;6.732;2022-12-07T08:31:18;96550.13;;;3.68;100.00
74346;BME280;62776;50.518;6.732;2022-12-07T08:34:04;96545.00;;;3.69;100.00
74346;BME280;62776;50.518;6.732;2022-12-07T08:36:50;96551.00;;;3.71;100.00
74346;BME280;62776;50.518;6.732;2022-12-07T08:39:36;96549.34;;;3.73;100.00
74346;BME280;62776;50.518;6.732;2022-12-07T08:42:22;96552.78;;;3.74;100.00
74346;BME280;62776;50.518;6.732;2022-12-07T08:45:14;96553.59;;;3.71;100.00
74346;BME280;62776;50.518;6.732;2022-12-07T08:48:08;96557.84;;;3.69;100.00
74346;BME280;62776;50.518;6.732;2022-12-07T08:50:56;96558.81;;;3.76;100.00
74346;BME280;62776;50.518;6.732;2022-12-07T08:53:43;96557.97;;;3.77;100.00
74346;BME280;62776;50.518;6.732;2022-12-07T08:56:29;96558.06;;;3.83;100.00
74346;BME280;62776;50.518;6.732;2022-12-07T08:59:16;96550.41;;;3.84;100.00
74346;BME280;62776;50.518;6.732;2022-12-07T09:02:04;96557.25;;;3.85;100.00
74346;BME280;62776;50.518;6.732;2022-12-07T09:04:51;96552.16;;;3.87;100.00
74346;BME280;62776;50.518;6.732;2022-12-07T09:07:38;96553.72;;;3.79;100.00
74346;BME280;62776;50.518;6.732;2022-12-07T09:10:24;96548.59;;;3.79;100.00
74346;BME280;62776;50.518;6.732;2022-12-07T09:13:11;96554.56;;;3.78;100.00
74346;BME280;62776;50.518;6.732;2022-12-07T09:15:57;96553.78;;;3.83;100.00
74346;BME280;62776;50.518;6.732;2022-12-07T09:18:43;96551.28;;;3.88;100.00
74346;BME280;62776;50.518;6.732;2022-12-07T09:21:29;96552.19;;;3.91;100.00
74346;BME280;62776;50.518;6.732;2022-12-07T09:24:16;96555.69;;;3.96;100.00
74346;BME280;62776;50.518;6.732;2022-12-07T09:27:02;96548.84;;;3.95;100.00
74346;BME280;62776;50.518;6.732;2022-12-07T09:29:48;96558.38;;;4.02;100.00
74346;BME280;62776;50.518;6.732;2022-12-07T09:32:34;96555.91;;;4.08;100.00
74346;BME280;62776;50.518;6.732;2022-12-07T09:35:20;96558.47;;;4.10;100.00
74346;BME280;62776;50.518;6.732;2022-12-07T09:38:06;96560.25;;;4.14;100.00
74346;BME280;62776;50.518;6.732;2022-12-07T09:40:53;96556.00;;;4.17;100.00
74346;BME280;62776;50.518;6.732;2022-12-07T09:43:40;96558.63;;;4.19;100.00
74346;BME280;62776;50.518;6.732;2022-12-07T09:46:27;96553.53;;;4.22;100.00
74346;BME280;62776;50.518;6.732;2022-12-07T09:49:21;96549.09;;;4.13;100.00
74346;BME280;62776;50.518;6.732;2022-12-07T09:54:54;96551.00;;;4.27;100.00
74346;BME280;62776;50.518;6.732;2022-12-07T09:57:40;96551.00;;;4.27;100.00
74346;BME280;62776;50.518;6.732;2022-12-07T10:00:28;96541.63;;;4.30;100.00
74346;BME280;62776;50.518;6.732;2022-12-07T10:03:15;96537.31;;;4.29;100.00
74346;BME280;62776;50.518;6.732;2022-12-07T10:06:01;96535.66;;;4.33;100.00
74346;BME280;62776;50.518;6.732;2022-12-07T10:08:47;96529.72;;;4.37;100.00
74346;BME280;62776;50.518;6.732;2022-12-07T10:11:34;96538.34;;;4.42;100.00
74346;BME280;62776;50.518;6.732;2022-12-07T10:14:20;96537.53;;;4.44;100.00
74346;BME280;62776;50.518;6.732;2022-12-07T10:17:28;96532.19;;;4.31;100.00
74346;BME280;62776;50.518;6.732;2022-12-07T10:23:11;96536.53;;;4.33;100.00
74346;BME280;62776;50.518;6.732;2022-12-07T10:26:00;96534.03;;;4.41;100.00
74346;BME280;62776;50.518;6.732;2022-12-07T10:29:16;96534.81;;;4.34;100.00
74346;BME280;62776;50.518;6.732;2022-12-07T10:32:23;96539.28;;;4.48;100.00
74346;BME280;62776;50.518;6.732;2022-12-07T10:35:43;96530.44;;;4.28;100.00
74346;BME280;62776;50.518;6.732;2022-12-07T10:38:30;96521.38;;;4.59;100.00
74346;BME280;62776;50.518;6.732;2022-12-07T10:41:18;96517.22;;;4.68;100.00
74346;BME280;62776;50.518;6.732;2022-12-07T10:44:04;96511.31;;;4.78;100.00
74346;BME280;62776;50.518;6.732;2022-12-07T10:50:10;96505.84;;;4.50;100.00
74346;BME280;62776;50.518;6.732;2022-12-07T10:56:42;96501.66;;;4.59;100.00
74346;BME280;62776;50.518;6.732;2022-12-07T11:02:58;96503.59;;;4.77;100.00
74346;BME280;62776;50.518;6.732;2022-12-07T11:09:35;96496.56;;;4.61;100.00
74346;BME280;62776;50.518;6.732;2022-12-07T11:22:35;96481.44;;;4.19;100.00
74346;BME280;62776;50.518;6.732;2022-12-07T11:25:51;96473.69;;;4.17;100.00
74346;BME280;62776;50.518;6.732;2022-12-07T11:38:22;96451.38;;;4.13;100.00
74346;BME280;62776;50.518;6.732;2022-12-07T11:41:10;96455.91;;;4.33;100.00
74346;BME280;62776;50.518;6.732;2022-12-07T11:44:08;96460.28;;;4.43;100.00
74346;BME280;62776;50.518;6.732;2022-12-07T11:49:58;96440.88;;;4.69;100.00
74346;BME280;62776;50.518;6.732;2022-12-07T11:55:57;96435.84;;;4.83;100.00
74346;BME280;62776;50.518;6.732;2022-12-07T12:04:53;96433.41;;;4.98;100.00
74346;BME280;62776;50.518;6.732;2022-12-07T12:07:42;96431.69;;;4.95;100.00
74346;BME280;62776;50.518;6.732;2022-12-07T12:23:21;96428.63;;;4.48;100.00
74346;BME280;62776;50.518;6.732;2022-12-07T12:26:15;96427.03;;;4.59;100.00
74346;BME280;62776;50.518;6.732;2022-12-07T12:32:17;96428.75;;;4.62;100.00
74346;BME280;62776;50.518;6.732;2022-12-07T12:35:29;96420.97;;;4.54;100.00
74346;BME280;62776;50.518;6.732;2022-12-07T12:47:41;96422.81;;;4.67;100.00
74346;BME280;62776;50.518;6.732;2022-12-07T12:50:35;96423.72;;;4.72;100.00
74346;BME280;62776;50.518;6.732;2022-12-07T12:53:24;96418.56;;;4.71;100.00
74346;BME280;62776;50.518;6.732;2022-12-07T12:59:26;96413.19;;;4.47;100.00
74346;BME280;62776;50.518;6.732;2022-12-07T13:02:21;96410.66;;;4.51;100.00
74346;BME280;62776;50.518;6.732;2022-12-07T13:08:21;96408.16;;;4.62;100.00
74346;BME280;62776;50.518;6.732;2022-12-07T13:11:34;96408.22;;;4.65;100.00
74346;BME280;62776;50.518;6.732;2022-12-07T13:20:43;96412.53;;;4.67;100.00
74346;BME280;62776;50.518;6.732;2022-12-07T13:26:37;96406.53;;;4.68;100.00
74346;BME280;62776;50.518;6.732;2022-12-07T13:29:23;96398.97;;;4.85;100.00
74346;BME280;62776;50.518;6.732;2022-12-07T13:32:24;96408.28;;;4.69;100.00
74346;BME280;62776;50.518;6.732;2022-12-07T13:35:35;96391.84;;;4.60;100.00
74346;BME280;62776;50.518;6.732;2022-12-07T13:38:32;96391.94;;;4.67;100.00
74346;BME280;62776;50.518;6.732;2022-12-07T13:41:21;96385.13;;;4.74;100.00
74346;BME280;62776;50.518;6.732;2022-12-07T13:44:14;96384.25;;;4.69;100.00
74346;BME280;62776;50.518;6.732;2022-12-07T13:47:17;96377.22;;;4.54;100.00
74346;BME280;62776;50.518;6.732;2022-12-07T13:50:24;96374.63;;;4.50;100.00
74346;BME280;62776;50.518;6.732;2022-12-07T13:53:13;96378.19;;;4.67;100.00
74346;BME280;62776;50.518;6.732;2022-12-07T13:56:01;96377.38;;;4.71;100.00
74346;BME280;62776;50.518;6.732;2022-12-07T13:58:47;96375.72;;;4.76;100.00
74346;BME280;62776;50.518;6.732;2022-12-07T14:01:33;96367.16;;;4.77;100.00
74346;BME280;62776;50.518;6.732;2022-12-07T14:04:32;96375.63;;;4.67;100.00
74346;BME280;62776;50.518;6.732;2022-12-07T14:07:21;96364.53;;;4.74;100.00
74346;BME280;62776;50.518;6.732;2022-12-07T14:10:24;96366.97;;;4.56;100.00
74346;BME280;62776;50.518;6.732;2022-12-07T14:16:29;96371.31;;;4.63;100.00
74346;BME280;62776;50.518;6.732;2022-12-07T14:19:41;96365.94;;;4.42;100.00
74346;BME280;62776;50.518;6.732;2022-12-07T14:22:31;96368.66;;;4.55;100.00
74346;BME280;62776;50.518;6.732;2022-12-07T14:25:26;96376.38;;;4.57;100.00
74346;BME280;62776;50.518;6.732;2022-12-07T14:28:33;96363.31;;;4.37;100.00
74346;BME280;62776;50.518;6.732;2022-12-07T14:31:24;96361.72;;;4.48;100.00
74346;BME280;62776;50.518;6.732;2022-12-07T14:34:14;96363.41;;;4.48;100.00
74346;BME280;62776;50.518;6.732;2022-12-07T14:37:00;96358.31;;;4.51;100.00
74346;BME280;62776;50.518;6.732;2022-12-07T14:39:46;96355.72;;;4.49;100.00
74346;BME280;62776;50.518;6.732;2022-12-07T14:42:33;96355.69;;;4.48;100.00
74346;BME280;62776;50.518;6.732;2022-12-07T14:45:22;96353.13;;;4.45;100.00
74346;BME280;62776;50.518;6.732;2022-12-07T14:48:12;96350.47;;;4.39;100.00
74346;BME280;62776;50.518;6.732;2022-12-07T14:50:58;96344.50;;;4.41;100.00
74346;BME280;62776;50.518;6.732;2022-12-07T14:53:50;96349.56;;;4.34;100.00
74346;BME280;62776;50.518;6.732;2022-12-07T14:56:36;96347.03;;;4.38;100.00
74346;BME280;62776;50.518;6.732;2022-12-07T14:59:22;96344.47;;;4.38;100.00
74346;BME280;62776;50.518;6.732;2022-12-07T15:02:11;96343.56;;;4.33;100.00
74346;BME280;62776;50.518;6.732;2022-12-07T15:04:57;96338.38;;;4.32;100.00
74346;BME280;62776;50.518;6.732;2022-12-07T15:07:44;96340.97;;;4.30;100.00
74346;BME280;62776;50.518;6.732;2022-12-07T15:10:33;96339.16;;;4.22;100.00
74346;BME280;62776;50.518;6.732;2022-12-07T15:13:19;96336.50;;;4.15;100.00
74346;BME280;62776;50.518;6.732;2022-12-07T15:16:23;96338.19;;;4.13;100.00
74346;BME280;62776;50.518;6.732;2022-12-07T15:19:15;96325.19;;;4.01;100.00
74346;BME280;62776;50.518;6.732;2022-12-07T15:22:01;96321.75;;;3.98;100.00
74346;BME280;62776;50.518;6.732;2022-12-07T15:24:47;96320.94;;;4.00;100.00
74346;BME280;62776;50.518;6.732;2022-12-07T15:27:34;96320.00;;;3.98;100.00
74346;BME280;62776;50.518;6.732;2022-12-07T15:30:20;96319.09;;;3.93;100.00
74346;BME280;62776;50.518;6.732;2022-12-07T15:33:06;96303.69;;;3.93;100.00
74346;BME280;62776;50.518;6.732;2022-12-07T15:35:52;96307.00;;;3.83;100.00
74346;BME280;62776;50.518;6.732;2022-12-07T15:38:38;96305.22;;;3.79;100.00
74346;BME280;62776;50.518;6.732;2022-12-07T15:41:24;96303.44;;;3.72;100.00
74346;BME280;62776;50.518;6.732;2022-12-07T15:44:12;96299.09;;;3.68;100.00
74346;BME280;62776;50.518;6.732;2022-12-07T15:47:16;96303.38;;;3.66;100.00
74346;BME280;62776;50.518;6.732;2022-12-07T15:50:10;96295.56;;;3.58;100.00
74346;BME280;62776;50.518;6.732;2022-12-07T15:52:57;96293.06;;;3.63;100.00
74346;BME280;62776;50.518;6.732;2022-12-07T15:55:43;96295.56;;;3.60;100.00
74346;BME280;62776;50.518;6.732;2022-12-07T15:58:30;96299.00;;;3.59;100.00
74346;BME280;62776;50.518;6.732;2022-12-07T16:01:18;96303.25;;;3.54;100.00
74346;BME280;62776;50.518;6.732;2022-12-07T16:04:04;96292.09;;;3.55;100.00
74346;BME280;62776;50.518;6.732;2022-12-07T16:06:50;96304.13;;;3.57;100.00
74346;BME280;62776;50.518;6.732;2022-12-07T16:09:37;96297.28;;;3.58;100.00
74346;BME280;62776;50.518;6.732;2022-12-07T16:12:23;96304.19;;;3.62;100.00
74346;BME280;62776;50.518;6.732;2022-12-07T16:15:11;96291.34;;;3.62;100.00
74346;BME280;62776;50.518;6.732;2022-12-07T16:17:57;96297.41;;;3.67;100.00
74346;BME280;62776;50.518;6.732;2022-12-07T16:20:43;96295.72;;;3.71;100.00
74346;BME280;62776;50.518;6.732;2022-12-07T16:23:29;96291.44;;;3.71;100.00
74346;BME280;62776;50.518;6.732;2022-12-07T16:26:20;96301.66;;;3.65;100.00
74346;BME280;62776;50.518;6.732;2022-12-07T16:29:07;96293.16;;;3.72;100.00
74346;BME280;62776;50.518;6.732;2022-12-07T16:31:53;96289.69;;;3.69;100.00
74346;BME280;62776;50.518;6.732;2022-12-07T16:34:39;96283.59;;;3.61;100.00
74346;BME280;62776;50.518;6.732;2022-12-07T16:37:26;96283.56;;;3.56;100.00
74346;BME280;62776;50.518;6.732;2022-12-07T16:40:12;96287.78;;;3.51;100.00
74346;BME280;62776;50.518;6.732;2022-12-07T16:42:58;96287.75;;;3.48;100.00
74346;BME280;62776;50.518;6.732;2022-12-07T16:45:46;96292.00;;;3.47;100.00
74346;BME280;62776;50.518;6.732;2022-12-07T16:48:37;96283.47;;;3.48;100.00
74346;BME280;62776;50.518;6.732;2022-12-07T16:51:23;96281.81;;;3.55;100.00